West Falls, New York
Current Conditions -  °F | °C
As of 12:54 AM on Monday 26 Jan 2015 (Local Time) from KBUF Reporting Station
Overcast Overcast  
Wind Chill:   Ceiling: 14000
Heat Index: 14°   Visibility: 10mi
Dew Point:   Wind: 10mph
Humidity: 71%   Direction: 90°E
Pressure: 30"   Gusts: NA
Location:  42.7°N, 78.68°W
Report Text: KBUF 260554Z 09009KT 10SM FEW100 OVC140 M10/M14 A3000 RMK AO2 SLP173 4/002 T11001144 11094 21106 58003
Loading
Personal Weather Stations






























Interactive Weather Map New forecast layout! Learn more

10-Day Weather Forecast

Advertisements
Track Severe Weather on mobile